sensor_id;sensor_type;location;lat;lon;timestamp;temperature;humidity
78788;DHT22;68131;52.508;5.502;2023-09-08T00:00:50;21.60;66.10
78788;DHT22;68131;52.508;5.502;2023-09-08T00:03:19;21.50;66.20
78788;DHT22;68131;52.508;5.502;2023-09-08T00:05:51;21.50;66.30
78788;DHT22;68131;52.508;5.502;2023-09-08T00:08:21;21.50;66.20
78788;DHT22;68131;52.508;5.502;2023-09-08T00:10:50;21.40;66.30
78788;DHT22;68131;52.508;5.502;2023-09-08T00:13:26;21.40;66.50
78788;DHT22;68131;52.508;5.502;2023-09-08T00:15:55;21.30;66.50
78788;DHT22;68131;52.508;5.502;2023-09-08T00:18:24;21.30;66.50
78788;DHT22;68131;52.508;5.502;2023-09-08T00:20:54;21.40;66.50
78788;DHT22;68131;52.508;5.502;2023-09-08T00:23:23;21.30;66.30
78788;DHT22;68131;52.508;5.502;2023-09-08T00:25:54;21.30;66.30
78788;DHT22;68131;52.508;5.502;2023-09-08T00:28:27;21.20;66.40
78788;DHT22;68131;52.508;5.502;2023-09-08T00:30:56;21.20;66.60
78788;DHT22;68131;52.508;5.502;2023-09-08T00:33:29;21.20;66.70
78788;DHT22;68131;52.508;5.502;2023-09-08T00:36:03;21.20;66.70
78788;DHT22;68131;52.508;5.502;2023-09-08T00:38:32;21.10;66.50
78788;DHT22;68131;52.508;5.502;2023-09-08T00:41:04;21.10;66.60
78788;DHT22;68131;52.508;5.502;2023-09-08T00:43:38;21.10;66.60
78788;DHT22;68131;52.508;5.502;2023-09-08T00:46:08;21.10;66.50
78788;DHT22;68131;52.508;5.502;2023-09-08T00:48:37;21.00;66.60
78788;DHT22;68131;52.508;5.502;2023-09-08T00:51:08;21.00;66.80
78788;DHT22;68131;52.508;5.502;2023-09-08T00:53:40;21.00;66.60
78788;DHT22;68131;52.508;5.502;2023-09-08T00:56:10;21.00;66.50
78788;DHT22;68131;52.508;5.502;2023-09-08T00:58:42;21.00;66.60
78788;DHT22;68131;52.508;5.502;2023-09-08T01:01:12;20.90;66.80
78788;DHT22;68131;52.508;5.502;2023-09-08T01:03:46;20.80;66.90
78788;DHT22;68131;52.508;5.502;2023-09-08T01:06:18;20.80;67.20
78788;DHT22;68131;52.508;5.502;2023-09-08T01:08:51;20.80;67.30
78788;DHT22;68131;52.508;5.502;2023-09-08T01:11:22;20.70;67.40
78788;DHT22;68131;52.508;5.502;2023-09-08T01:13:54;20.70;67.30
78788;DHT22;68131;52.508;5.502;2023-09-08T01:16:26;20.60;67.50
78788;DHT22;68131;52.508;5.502;2023-09-08T01:18:57;20.60;67.40
78788;DHT22;68131;52.508;5.502;2023-09-08T01:21:40;20.50;67.50
78788;DHT22;68131;52.508;5.502;2023-09-08T01:24:29;20.50;67.50
78788;DHT22;68131;52.508;5.502;2023-09-08T01:27:06;20.50;67.50
78788;DHT22;68131;52.508;5.502;2023-09-08T01:29:38;20.50;67.40
78788;DHT22;68131;52.508;5.502;2023-09-08T01:32:10;20.40;67.40
78788;DHT22;68131;52.508;5.502;2023-09-08T01:34:40;20.40;67.50
78788;DHT22;68131;52.508;5.502;2023-09-08T01:37:22;20.40;67.60
78788;DHT22;68131;52.508;5.502;2023-09-08T01:39:52;20.40;67.80
78788;DHT22;68131;52.508;5.502;2023-09-08T01:42:24;20.40;67.70
78788;DHT22;68131;52.508;5.502;2023-09-08T01:44:53;20.30;67.60
78788;DHT22;68131;52.508;5.502;2023-09-08T01:47:22;20.30;67.70
78788;DHT22;68131;52.508;5.502;2023-09-08T01:49:51;20.30;67.70
78788;DHT22;68131;52.508;5.502;2023-09-08T01:52:21;20.20;67.90
78788;DHT22;68131;52.508;5.502;2023-09-08T01:54:51;20.10;68.00
78788;DHT22;68131;52.508;5.502;2023-09-08T01:57:24;20.00;68.30
78788;DHT22;68131;52.508;5.502;2023-09-08T01:59:53;19.90;68.50
78788;DHT22;68131;52.508;5.502;2023-09-08T02:02:23;19.80;68.70
78788;DHT22;68131;52.508;5.502;2023-09-08T02:04:52;19.70;68.90
78788;DHT22;68131;52.508;5.502;2023-09-08T02:07:21;19.60;69.10
78788;DHT22;68131;52.508;5.502;2023-09-08T02:09:51;19.60;69.10
78788;DHT22;68131;52.508;5.502;2023-09-08T02:12:24;19.70;68.90
78788;DHT22;68131;52.508;5.502;2023-09-08T02:14:55;19.80;68.90
78788;DHT22;68131;52.508;5.502;2023-09-08T02:17:27;19.70;68.90
78788;DHT22;68131;52.508;5.502;2023-09-08T02:19:56;19.70;68.90
78788;DHT22;68131;52.508;5.502;2023-09-08T02:22:25;19.80;68.90
78788;DHT22;68131;52.508;5.502;2023-09-08T02:24:57;19.80;68.80
78788;DHT22;68131;52.508;5.502;2023-09-08T02:27:35;19.90;68.60
78788;DHT22;68131;52.508;5.502;2023-09-08T02:30:06;19.90;68.50
78788;DHT22;68131;52.508;5.502;2023-09-08T02:32:36;19.90;68.60
78788;DHT22;68131;52.508;5.502;2023-09-08T02:35:11;19.90;68.60
78788;DHT22;68131;52.508;5.502;2023-09-08T02:37:43;20.00;68.60
78788;DHT22;68131;52.508;5.502;2023-09-08T02:40:13;20.00;68.50
78788;DHT22;68131;52.508;5.502;2023-09-08T02:42:48;20.00;68.50
78788;DHT22;68131;52.508;5.502;2023-09-08T02:45:17;20.00;68.40
78788;DHT22;68131;52.508;5.502;2023-09-08T02:47:47;20.00;68.50
78788;DHT22;68131;52.508;5.502;2023-09-08T02:50:16;20.00;68.60
78788;DHT22;68131;52.508;5.502;2023-09-08T02:52:46;19.90;68.70
78788;DHT22;68131;52.508;5.502;2023-09-08T02:55:17;19.80;68.90
78788;DHT22;68131;52.508;5.502;2023-09-08T02:57:49;19.70;69.10
78788;DHT22;68131;52.508;5.502;2023-09-08T03:00:19;19.70;69.30
78788;DHT22;68131;52.508;5.502;2023-09-08T03:02:52;19.60;69.20
78788;DHT22;68131;52.508;5.502;2023-09-08T03:05:21;19.60;69.50
78788;DHT22;68131;52.508;5.502;2023-09-08T03:07:51;19.60;69.40
78788;DHT22;68131;52.508;5.502;2023-09-08T03:10:21;19.60;69.50
78788;DHT22;68131;52.508;5.502;2023-09-08T03:12:53;19.60;69.50
78788;DHT22;68131;52.508;5.502;2023-09-08T03:15:26;19.50;69.80
78788;DHT22;68131;52.508;5.502;2023-09-08T03:18:00;19.50;69.80
78788;DHT22;68131;52.508;5.502;2023-09-08T03:20:31;19.40;69.80
78788;DHT22;68131;52.508;5.502;2023-09-08T03:23:00;19.30;69.90
78788;DHT22;68131;52.508;5.502;2023-09-08T03:25:31;19.30;70.10
78788;DHT22;68131;52.508;5.502;2023-09-08T03:28:03;19.20;70.20
78788;DHT22;68131;52.508;5.502;2023-09-08T03:30:36;19.10;70.40
78788;DHT22;68131;52.508;5.502;2023-09-08T03:33:06;19.00;70.50
78788;DHT22;68131;52.508;5.502;2023-09-08T03:35:36;19.00;70.60
78788;DHT22;68131;52.508;5.502;2023-09-08T03:38:05;18.90;70.70
78788;DHT22;68131;52.508;5.502;2023-09-08T03:40:35;18.90;70.70
78788;DHT22;68131;52.508;5.502;2023-09-08T03:43:07;18.90;70.80
78788;DHT22;68131;52.508;5.502;2023-09-08T03:45:37;18.90;70.70
78788;DHT22;68131;52.508;5.502;2023-09-08T03:48:07;18.90;70.70
78788;DHT22;68131;52.508;5.502;2023-09-08T03:50:37;18.90;70.70
78788;DHT22;68131;52.508;5.502;2023-09-08T03:53:06;19.00;70.70
78788;DHT22;68131;52.508;5.502;2023-09-08T03:55:36;19.00;70.60
78788;DHT22;68131;52.508;5.502;2023-09-08T03:58:08;19.00;70.60
78788;DHT22;68131;52.508;5.502;2023-09-08T04:00:39;19.00;70.70
78788;DHT22;68131;52.508;5.502;2023-09-08T04:03:08;19.00;70.80
78788;DHT22;68131;52.508;5.502;2023-09-08T04:05:37;19.00;70.70
78788;DHT22;68131;52.508;5.502;2023-09-08T04:08:07;19.00;70.80
78788;DHT22;68131;52.508;5.502;2023-09-08T04:10:36;19.00;70.80
78788;DHT22;68131;52.508;5.502;2023-09-08T04:13:08;19.00;70.80
78788;DHT22;68131;52.508;5.502;2023-09-08T04:15:37;19.00;70.80
78788;DHT22;68131;52.508;5.502;2023-09-08T04:18:09;19.10;70.70
78788;DHT22;68131;52.508;5.502;2023-09-08T04:20:42;19.10;70.70
78788;DHT22;68131;52.508;5.502;2023-09-08T04:23:13;19.20;70.60
78788;DHT22;68131;52.508;5.502;2023-09-08T04:25:42;19.20;70.50
78788;DHT22;68131;52.508;5.502;2023-09-08T04:28:14;19.20;70.60
78788;DHT22;68131;52.508;5.502;2023-09-08T04:30:50;19.30;70.50
78788;DHT22;68131;52.508;5.502;2023-09-08T04:33:26;19.40;70.30
78788;DHT22;68131;52.508;5.502;2023-09-08T04:36:00;19.40;70.20
78788;DHT22;68131;52.508;5.502;2023-09-08T04:38:30;19.40;70.00
78788;DHT22;68131;52.508;5.502;2023-09-08T04:40:59;19.40;70.00
78788;DHT22;68131;52.508;5.502;2023-09-08T04:43:33;19.40;70.20
78788;DHT22;68131;52.508;5.502;2023-09-08T04:46:03;19.30;70.20
78788;DHT22;68131;52.508;5.502;2023-09-08T04:48:32;19.30;70.60
78788;DHT22;68131;52.508;5.502;2023-09-08T04:51:02;19.30;70.90
78788;DHT22;68131;52.508;5.502;2023-09-08T04:53:31;19.20;71.10
78788;DHT22;68131;52.508;5.502;2023-09-08T04:56:03;19.20;71.30
78788;DHT22;68131;52.508;5.502;2023-09-08T04:58:35;19.20;71.30
78788;DHT22;68131;52.508;5.502;2023-09-08T05:01:05;19.10;71.60
78788;DHT22;68131;52.508;5.502;2023-09-08T05:03:37;19.10;71.80
78788;DHT22;68131;52.508;5.502;2023-09-08T05:06:08;19.10;72.00
78788;DHT22;68131;52.508;5.502;2023-09-08T05:08:37;19.00;72.10
78788;DHT22;68131;52.508;5.502;2023-09-08T05:11:07;19.00;72.30
78788;DHT22;68131;52.508;5.502;2023-09-08T05:13:39;18.90;72.30
78788;DHT22;68131;52.508;5.502;2023-09-08T05:16:09;18.80;72.50
78788;DHT22;68131;52.508;5.502;2023-09-08T05:18:45;18.80;72.60
78788;DHT22;68131;52.508;5.502;2023-09-08T05:21:16;18.70;72.80
78788;DHT22;68131;52.508;5.502;2023-09-08T05:23:46;18.70;72.80
78788;DHT22;68131;52.508;5.502;2023-09-08T05:26:18;18.70;72.60
78788;DHT22;68131;52.508;5.502;2023-09-08T05:28:49;18.70;72.70
78788;DHT22;68131;52.508;5.502;2023-09-08T05:31:19;18.80;72.60
78788;DHT22;68131;52.508;5.502;2023-09-08T05:33:48;18.80;72.40
78788;DHT22;68131;52.508;5.502;2023-09-08T05:36:21;18.80;72.40
78788;DHT22;68131;52.508;5.502;2023-09-08T05:38:51;18.80;72.30
78788;DHT22;68131;52.508;5.502;2023-09-08T05:41:21;19.10;72.60
78788;DHT22;68131;52.508;5.502;2023-09-08T05:43:54;19.90;71.70
78788;DHT22;68131;52.508;5.502;2023-09-08T05:46:24;20.80;70.10
78788;DHT22;68131;52.508;5.502;2023-09-08T05:49:02;21.80;68.40
78788;DHT22;68131;52.508;5.502;2023-09-08T05:51:32;22.60;66.80
78788;DHT22;68131;52.508;5.502;2023-09-08T05:54:05;23.30;65.20
78788;DHT22;68131;52.508;5.502;2023-09-08T05:56:34;24.00;63.90
78788;DHT22;68131;52.508;5.502;2023-09-08T05:59:06;24.60;62.70
78788;DHT22;68131;52.508;5.502;2023-09-08T06:01:37;24.90;61.80
78788;DHT22;68131;52.508;5.502;2023-09-08T06:04:09;25.20;61.50
78788;DHT22;68131;52.508;5.502;2023-09-08T06:06:39;25.40;60.30
78788;DHT22;68131;52.508;5.502;2023-09-08T06:09:10;25.30;60.60
78788;DHT22;68131;52.508;5.502;2023-09-08T06:11:42;25.30;60.90
78788;DHT22;68131;52.508;5.502;2023-09-08T06:14:15;25.20;60.90
78788;DHT22;68131;52.508;5.502;2023-09-08T06:16:47;25.00;61.40
78788;DHT22;68131;52.508;5.502;2023-09-08T06:19:17;24.80;61.20
78788;DHT22;68131;52.508;5.502;2023-09-08T06:21:48;24.60;61.20
78788;DHT22;68131;52.508;5.502;2023-09-08T06:24:17;24.40;61.80
78788;DHT22;68131;52.508;5.502;2023-09-08T06:26:49;24.30;62.00
78788;DHT22;68131;52.508;5.502;2023-09-08T06:29:21;24.30;61.80
78788;DHT22;68131;52.508;5.502;2023-09-08T06:31:51;24.50;61.40
78788;DHT22;68131;52.508;5.502;2023-09-08T06:34:20;24.50;61.20
78788;DHT22;68131;52.508;5.502;2023-09-08T06:36:50;24.50;61.20
78788;DHT22;68131;52.508;5.502;2023-09-08T06:39:19;24.50;61.10
78788;DHT22;68131;52.508;5.502;2023-09-08T06:41:52;24.60;61.30
78788;DHT22;68131;52.508;5.502;2023-09-08T06:44:24;24.80;61.20
78788;DHT22;68131;52.508;5.502;2023-09-08T06:46:53;25.10;60.60
78788;DHT22;68131;52.508;5.502;2023-09-08T06:49:27;25.30;60.20
78788;DHT22;68131;52.508;5.502;2023-09-08T06:51:57;25.50;59.60
78788;DHT22;68131;52.508;5.502;2023-09-08T06:54:27;25.60;59.60
78788;DHT22;68131;52.508;5.502;2023-09-08T06:56:56;25.70;59.70
78788;DHT22;68131;52.508;5.502;2023-09-08T06:59:30;25.80;59.60
78788;DHT22;68131;52.508;5.502;2023-09-08T07:02:00;25.90;59.20
78788;DHT22;68131;52.508;5.502;2023-09-08T07:04:32;26.10;59.00
78788;DHT22;68131;52.508;5.502;2023-09-08T07:07:05;26.20;58.70
78788;DHT22;68131;52.508;5.502;2023-09-08T07:09:42;26.40;58.60
78788;DHT22;68131;52.508;5.502;2023-09-08T07:12:12;26.40;58.40
78788;DHT22;68131;52.508;5.502;2023-09-08T07:14:49;26.50;58.50
78788;DHT22;68131;52.508;5.502;2023-09-08T07:17:21;26.60;58.50
78788;DHT22;68131;52.508;5.502;2023-09-08T07:19:51;26.70;58.20
78788;DHT22;68131;52.508;5.502;2023-09-08T07:22:22;26.70;58.10
78788;DHT22;68131;52.508;5.502;2023-09-08T07:24:56;26.80;58.10
78788;DHT22;68131;52.508;5.502;2023-09-08T07:27:26;26.80;57.70
78788;DHT22;68131;52.508;5.502;2023-09-08T07:29:58;26.80;58.00
78788;DHT22;68131;52.508;5.502;2023-09-08T07:32:27;26.90;57.90
78788;DHT22;68131;52.508;5.502;2023-09-08T07:34:57;26.90;57.90
78788;DHT22;68131;52.508;5.502;2023-09-08T07:37:26;26.90;57.90
78788;DHT22;68131;52.508;5.502;2023-09-08T07:39:56;27.00;58.10
78788;DHT22;68131;52.508;5.502;2023-09-08T07:42:25;27.00;57.80
78788;DHT22;68131;52.508;5.502;2023-09-08T07:45:01;27.00;57.90
78788;DHT22;68131;52.508;5.502;2023-09-08T07:47:30;26.90;58.10
78788;DHT22;68131;52.508;5.502;2023-09-08T07:50:18;27.00;58.00
78788;DHT22;68131;52.508;5.502;2023-09-08T07:52:47;27.00;58.10
78788;DHT22;68131;52.508;5.502;2023-09-08T07:55:17;27.10;58.20
78788;DHT22;68131;52.508;5.502;2023-09-08T07:57:51;27.20;58.10
78788;DHT22;68131;52.508;5.502;2023-09-08T08:00:23;27.30;58.10
78788;DHT22;68131;52.508;5.502;2023-09-08T08:02:54;27.40;57.60
78788;DHT22;68131;52.508;5.502;2023-09-08T08:05:24;27.40;58.00
78788;DHT22;68131;52.508;5.502;2023-09-08T08:07:53;27.50;58.10
78788;DHT22;68131;52.508;5.502;2023-09-08T08:10:22;27.60;57.30
78788;DHT22;68131;52.508;5.502;2023-09-08T08:12:51;27.50;57.50
78788;DHT22;68131;52.508;5.502;2023-09-08T08:15:35;27.50;57.70
78788;DHT22;68131;52.508;5.502;2023-09-08T08:18:04;27.40;58.00
78788;DHT22;68131;52.508;5.502;2023-09-08T08:20:36;27.40;58.10
78788;DHT22;68131;52.508;5.502;2023-09-08T08:23:06;27.40;58.30
78788;DHT22;68131;52.508;5.502;2023-09-08T08:25:35;27.50;58.20
78788;DHT22;68131;52.508;5.502;2023-09-08T08:28:05;27.50;58.10
78788;DHT22;68131;52.508;5.502;2023-09-08T08:30:37;27.50;58.10
78788;DHT22;68131;52.508;5.502;2023-09-08T08:33:07;27.50;58.10
78788;DHT22;68131;52.508;5.502;2023-09-08T08:35:41;27.50;58.10
78788;DHT22;68131;52.508;5.502;2023-09-08T08:38:12;27.50;58.20
78788;DHT22;68131;52.508;5.502;2023-09-08T08:40:42;27.60;58.00
78788;DHT22;68131;52.508;5.502;2023-09-08T08:43:11;27.60;57.90
78788;DHT22;68131;52.508;5.502;2023-09-08T08:45:44;27.60;58.20
78788;DHT22;68131;52.508;5.502;2023-09-08T08:48:17;27.60;58.20
78788;DHT22;68131;52.508;5.502;2023-09-08T08:50:50;27.70;58.40
78788;DHT22;68131;52.508;5.502;2023-09-08T08:53:24;27.70;58.10
78788;DHT22;68131;52.508;5.502;2023-09-08T08:55:56;27.70;58.50
78788;DHT22;68131;52.508;5.502;2023-09-08T08:58:29;27.70;58.50
78788;DHT22;68131;52.508;5.502;2023-09-08T09:01:04;27.80;58.20
78788;DHT22;68131;52.508;5.502;2023-09-08T09:03:34;27.90;58.10
78788;DHT22;68131;52.508;5.502;2023-09-08T09:06:04;27.90;58.30
78788;DHT22;68131;52.508;5.502;2023-09-08T09:08:33;27.90;58.20
78788;DHT22;68131;52.508;5.502;2023-09-08T09:11:04;28.00;57.70
78788;DHT22;68131;52.508;5.502;2023-09-08T09:13:33;28.00;57.40
78788;DHT22;68131;52.508;5.502;2023-09-08T09:16:05;28.00;57.50
78788;DHT22;68131;52.508;5.502;2023-09-08T09:18:54;28.10;58.10
78788;DHT22;68131;52.508;5.502;2023-09-08T09:21:24;28.30;57.80
78788;DHT22;68131;52.508;5.502;2023-09-08T09:23:53;28.50;57.50
78788;DHT22;68131;52.508;5.502;2023-09-08T09:26:27;28.60;57.30
78788;DHT22;68131;52.508;5.502;2023-09-08T09:28:58;28.70;57.40
78788;DHT22;68131;52.508;5.502;2023-09-08T09:31:30;28.80;57.50
78788;DHT22;68131;52.508;5.502;2023-09-08T09:34:03;28.80;57.50
78788;DHT22;68131;52.508;5.502;2023-09-08T09:36:33;28.90;57.40
78788;DHT22;68131;52.508;5.502;2023-09-08T09:39:03;29.00;57.40
78788;DHT22;68131;52.508;5.502;2023-09-08T09:41:37;29.10;56.60
78788;DHT22;68131;52.508;5.502;2023-09-08T09:44:06;29.30;57.00
78788;DHT22;68131;52.508;5.502;2023-09-08T09:46:40;29.40;56.60
78788;DHT22;68131;52.508;5.502;2023-09-08T09:49:12;29.60;56.20
78788;DHT22;68131;52.508;5.502;2023-09-08T09:51:44;29.60;55.90
78788;DHT22;68131;52.508;5.502;2023-09-08T09:54:16;29.60;55.80
78788;DHT22;68131;52.508;5.502;2023-09-08T09:56:46;29.50;56.20
78788;DHT22;68131;52.508;5.502;2023-09-08T09:59:18;29.40;56.20
78788;DHT22;68131;52.508;5.502;2023-09-08T10:01:55;29.50;56.30
78788;DHT22;68131;52.508;5.502;2023-09-08T10:04:25;29.50;56.60
78788;DHT22;68131;52.508;5.502;2023-09-08T10:06:57;29.60;56.60
78788;DHT22;68131;52.508;5.502;2023-09-08T10:09:28;29.60;56.20
78788;DHT22;68131;52.508;5.502;2023-09-08T10:12:01;29.60;56.70
78788;DHT22;68131;52.508;5.502;2023-09-08T10:14:36;29.70;56.50
78788;DHT22;68131;52.508;5.502;2023-09-08T10:17:12;29.70;56.00
78788;DHT22;68131;52.508;5.502;2023-09-08T10:19:45;29.70;56.30
78788;DHT22;68131;52.508;5.502;2023-09-08T10:22:20;29.70;56.10
78788;DHT22;68131;52.508;5.502;2023-09-08T10:24:55;29.80;56.20
78788;DHT22;68131;52.508;5.502;2023-09-08T10:27:26;30.00;56.10
78788;DHT22;68131;52.508;5.502;2023-09-08T10:30:00;30.00;55.60
78788;DHT22;68131;52.508;5.502;2023-09-08T10:32:41;30.10;55.40
78788;DHT22;68131;52.508;5.502;2023-09-08T10:35:10;30.00;55.20
78788;DHT22;68131;52.508;5.502;2023-09-08T10:37:40;30.00;55.40
78788;DHT22;68131;52.508;5.502;2023-09-08T10:40:25;30.00;55.30
78788;DHT22;68131;52.508;5.502;2023-09-08T10:43:17;30.00;55.70
78788;DHT22;68131;52.508;5.502;2023-09-08T10:45:47;30.00;56.00
78788;DHT22;68131;52.508;5.502;2023-09-08T10:48:19;30.10;56.00
78788;DHT22;68131;52.508;5.502;2023-09-08T10:50:48;30.20;55.60
78788;DHT22;68131;52.508;5.502;2023-09-08T10:53:18;30.10;55.90
78788;DHT22;68131;52.508;5.502;2023-09-08T10:55:54;30.00;56.00
78788;DHT22;68131;52.508;5.502;2023-09-08T10:58:31;30.00;56.10
78788;DHT22;68131;52.508;5.502;2023-09-08T11:01:03;30.00;55.90
78788;DHT22;68131;52.508;5.502;2023-09-08T11:03:49;30.00;56.10
78788;DHT22;68131;52.508;5.502;2023-09-08T11:06:21;30.00;55.90
78788;DHT22;68131;52.508;5.502;2023-09-08T11:08:56;29.90;56.20
78788;DHT22;68131;52.508;5.502;2023-09-08T11:11:35;30.00;56.60
78788;DHT22;68131;52.508;5.502;2023-09-08T11:14:06;30.10;56.20
78788;DHT22;68131;52.508;5.502;2023-09-08T11:16:37;30.10;55.90
78788;DHT22;68131;52.508;5.502;2023-09-08T11:19:15;30.10;56.30
78788;DHT22;68131;52.508;5.502;2023-09-08T11:21:44;30.20;56.40
78788;DHT22;68131;52.508;5.502;2023-09-08T11:24:18;30.20;56.10
78788;DHT22;68131;52.508;5.502;2023-09-08T11:26:47;30.30;56.00
78788;DHT22;68131;52.508;5.502;2023-09-08T11:29:19;30.30;56.10
78788;DHT22;68131;52.508;5.502;2023-09-08T11:31:52;30.30;55.70
78788;DHT22;68131;52.508;5.502;2023-09-08T11:34:26;30.20;56.10
78788;DHT22;68131;52.508;5.502;2023-09-08T11:36:57;30.30;56.40
78788;DHT22;68131;52.508;5.502;2023-09-08T11:39:26;30.40;56.20
78788;DHT22;68131;52.508;5.502;2023-09-08T11:42:00;30.40;56.20
78788;DHT22;68131;52.508;5.502;2023-09-08T11:44:30;30.40;55.70
78788;DHT22;68131;52.508;5.502;2023-09-08T11:47:02;30.40;56.00
78788;DHT22;68131;52.508;5.502;2023-09-08T11:49:45;30.50;56.10
78788;DHT22;68131;52.508;5.502;2023-09-08T11:52:15;30.50;56.00
78788;DHT22;68131;52.508;5.502;2023-09-08T11:54:49;30.50;55.80
78788;DHT22;68131;52.508;5.502;2023-09-08T11:57:20;30.50;55.50
78788;DHT22;68131;52.508;5.502;2023-09-08T11:59:52;30.50;55.60
78788;DHT22;68131;52.508;5.502;2023-09-08T12:02:24;30.40;55.20
78788;DHT22;68131;52.508;5.502;2023-09-08T12:04:58;30.40;55.20
78788;DHT22;68131;52.508;5.502;2023-09-08T12:07:30;30.40;55.20
78788;DHT22;68131;52.508;5.502;2023-09-08T12:10:07;30.40;55.60
78788;DHT22;68131;52.508;5.502;2023-09-08T12:12:43;30.40;55.40
78788;DHT22;68131;52.508;5.502;2023-09-08T12:15:31;30.40;55.40
78788;DHT22;68131;52.508;5.502;2023-09-08T12:18:05;30.30;55.70
78788;DHT22;68131;52.508;5.502;2023-09-08T12:20:39;30.30;55.80
78788;DHT22;68131;52.508;5.502;2023-09-08T12:23:19;30.40;55.70
78788;DHT22;68131;52.508;5.502;2023-09-08T12:25:51;30.40;55.70
78788;DHT22;68131;52.508;5.502;2023-09-08T12:28:21;30.50;55.70
78788;DHT22;68131;52.508;5.502;2023-09-08T12:30:51;30.60;55.70
78788;DHT22;68131;52.508;5.502;2023-09-08T12:33:21;30.60;55.70
78788;DHT22;68131;52.508;5.502;2023-09-08T12:35:54;30.70;55.40
78788;DHT22;68131;52.508;5.502;2023-09-08T12:38:23;30.70;55.50
78788;DHT22;68131;52.508;5.502;2023-09-08T12:41:02;30.70;55.50
78788;DHT22;68131;52.508;5.502;2023-09-08T12:43:34;30.70;55.50
78788;DHT22;68131;52.508;5.502;2023-09-08T12:46:03;30.70;55.60
78788;DHT22;68131;52.508;5.502;2023-09-08T12:48:34;30.70;55.60
78788;DHT22;68131;52.508;5.502;2023-09-08T12:51:05;30.80;55.60
78788;DHT22;68131;52.508;5.502;2023-09-08T12:53:36;30.80;54.90
78788;DHT22;68131;52.508;5.502;2023-09-08T12:56:06;30.70;55.20
78788;DHT22;68131;52.508;5.502;2023-09-08T12:58:35;30.70;55.50
78788;DHT22;68131;52.508;5.502;2023-09-08T13:01:06;30.70;55.20
78788;DHT22;68131;52.508;5.502;2023-09-08T13:03:35;30.70;55.40
78788;DHT22;68131;52.508;5.502;2023-09-08T13:06:11;30.70;55.50
78788;DHT22;68131;52.508;5.502;2023-09-08T13:08:42;30.70;55.10
78788;DHT22;68131;52.508;5.502;2023-09-08T13:11:13;30.70;55.20
78788;DHT22;68131;52.508;5.502;2023-09-08T13:13:42;30.70;55.30
78788;DHT22;68131;52.508;5.502;2023-09-08T13:16:12;30.70;55.00
78788;DHT22;68131;52.508;5.502;2023-09-08T13:18:41;30.70;55.20
78788;DHT22;68131;52.508;5.502;2023-09-08T13:21:16;30.60;55.40
78788;DHT22;68131;52.508;5.502;2023-09-08T13:23:47;30.60;55.60
78788;DHT22;68131;52.508;5.502;2023-09-08T13:26:18;30.60;55.70
78788;DHT22;68131;52.508;5.502;2023-09-08T13:28:47;30.60;55.90
78788;DHT22;68131;52.508;5.502;2023-09-08T13:31:21;30.60;55.90
78788;DHT22;68131;52.508;5.502;2023-09-08T13:33:52;30.60;55.90
78788;DHT22;68131;52.508;5.502;2023-09-08T13:36:25;30.50;56.00
78788;DHT22;68131;52.508;5.502;2023-09-08T13:38:54;30.60;56.10
78788;DHT22;68131;52.508;5.502;2023-09-08T13:41:24;30.60;56.30
78788;DHT22;68131;52.508;5.502;2023-09-08T13:43:54;30.60;56.00
78788;DHT22;68131;52.508;5.502;2023-09-08T13:46:25;30.50;56.20
78788;DHT22;68131;52.508;5.502;2023-09-08T13:48:54;30.50;56.40
78788;DHT22;68131;52.508;5.502;2023-09-08T13:51:30;30.50;56.50
78788;DHT22;68131;52.508;5.502;2023-09-08T13:54:00;30.60;56.50
78788;DHT22;68131;52.508;5.502;2023-09-08T13:56:29;30.60;56.60
78788;DHT22;68131;52.508;5.502;2023-09-08T13:59:00;30.60;56.70
78788;DHT22;68131;52.508;5.502;2023-09-08T14:01:37;30.60;56.80
78788;DHT22;68131;52.508;5.502;2023-09-08T14:04:06;30.60;56.80
78788;DHT22;68131;52.508;5.502;2023-09-08T14:06:38;30.60;56.90
78788;DHT22;68131;52.508;5.502;2023-09-08T14:09:09;30.60;56.90
78788;DHT22;68131;52.508;5.502;2023-09-08T14:11:38;30.60;57.00
78788;DHT22;68131;52.508;5.502;2023-09-08T14:14:09;30.60;57.00
78788;DHT22;68131;52.508;5.502;2023-09-08T14:16:39;30.60;57.10
78788;DHT22;68131;52.508;5.502;2023-09-08T14:19:09;30.50;57.20
78788;DHT22;68131;52.508;5.502;2023-09-08T14:21:42;30.50;57.30
78788;DHT22;68131;52.508;5.502;2023-09-08T14:24:13;30.50;57.40
78788;DHT22;68131;52.508;5.502;2023-09-08T14:26:42;30.50;57.50
78788;DHT22;68131;52.508;5.502;2023-09-08T14:29:12;30.50;57.60
78788;DHT22;68131;52.508;5.502;2023-09-08T14:31:41;30.40;57.70
78788;DHT22;68131;52.508;5.502;2023-09-08T14:34:13;30.40;57.70
78788;DHT22;68131;52.508;5.502;2023-09-08T14:36:45;30.30;57.60
78788;DHT22;68131;52.508;5.502;2023-09-08T14:39:14;30.30;57.80
78788;DHT22;68131;52.508;5.502;2023-09-08T14:41:45;30.20;57.80
78788;DHT22;68131;52.508;5.502;2023-09-08T14:44:16;30.20;58.00
78788;DHT22;68131;52.508;5.502;2023-09-08T14:46:50;30.20;57.90
78788;DHT22;68131;52.508;5.502;2023-09-08T14:49:20;30.20;57.80
78788;DHT22;68131;52.508;5.502;2023-09-08T14:51:51;30.10;57.90
78788;DHT22;68131;52.508;5.502;2023-09-08T14:54:21;30.10;58.10
78788;DHT22;68131;52.508;5.502;2023-09-08T14:56:54;30.10;58.00
78788;DHT22;68131;52.508;5.502;2023-09-08T14:59:23;30.10;58.00
78788;DHT22;68131;52.508;5.502;2023-09-08T15:01:55;30.10;58.10
78788;DHT22;68131;52.508;5.502;2023-09-08T15:04:26;30.00;58.00
78788;DHT22;68131;52.508;5.502;2023-09-08T15:07:01;30.10;57.90
78788;DHT22;68131;52.508;5.502;2023-09-08T15:09:31;30.10;58.00
78788;DHT22;68131;52.508;5.502;2023-09-08T15:12:00;30.00;57.90
78788;DHT22;68131;52.508;5.502;2023-09-08T15:14:32;30.00;58.00
78788;DHT22;68131;52.508;5.502;2023-09-08T15:17:02;30.00;58.00
78788;DHT22;68131;52.508;5.502;2023-09-08T15:19:32;29.90;58.00
78788;DHT22;68131;52.508;5.502;2023-09-08T15:22:04;29.90;58.20
78788;DHT22;68131;52.508;5.502;2023-09-08T15:24:34;29.80;58.30
78788;DHT22;68131;52.508;5.502;2023-09-08T15:27:04;29.70;58.40
78788;DHT22;68131;52.508;5.502;2023-09-08T15:29:34;29.60;58.40
78788;DHT22;68131;52.508;5.502;2023-09-08T15:32:05;29.60;58.50
78788;DHT22;68131;52.508;5.502;2023-09-08T15:34:35;29.60;58.50
78788;DHT22;68131;52.508;5.502;2023-09-08T15:37:07;29.60;58.60
78788;DHT22;68131;52.508;5.502;2023-09-08T15:39:38;29.60;58.50
78788;DHT22;68131;52.508;5.502;2023-09-08T15:42:09;29.60;58.50
78788;DHT22;68131;52.508;5.502;2023-09-08T15:44:40;29.60;58.30
78788;DHT22;68131;52.508;5.502;2023-09-08T15:47:09;29.70;58.10
78788;DHT22;68131;52.508;5.502;2023-09-08T15:49:44;29.70;57.90
78788;DHT22;68131;52.508;5.502;2023-09-08T15:52:25;29.70;57.70
78788;DHT22;68131;52.508;5.502;2023-09-08T15:54:56;29.80;57.50
78788;DHT22;68131;52.508;5.502;2023-09-08T15:57:35;29.80;57.40